Horsefly, Canada
Current Conditions -  °F | °C
As of 9:00 PM on Sunday 21 Dec 2014 (Local Time) from CYWL Reporting Station
Overcast Overcast  
Wind Chill: 27°   Ceiling: 7000
Heat Index: 32°   Visibility: 15mi
Dew Point: 30°   Wind: 5mph
Humidity: 93%   Direction: 150°SSE
Pressure: 29.76"   Gusts: NA
Location:  52.33°N, 121.42°W
Report Text: CYWL 220500Z 15004KT 15SM OVC070 M00/M01 A2976 RMK AC8 SLP117
Loading
Personal Weather Stations






























Interactive Weather Map New forecast layout! Learn more

10-Day Weather Forecast

Advertisements
Track Severe Weather on mobile